Latest Weather Observations for Giles*

IDD60801

Issued at 9:31 pm CST Sunday 2 August 2015 (issued every 30 minutes, with the page automatically refreshed every 10 minutes)

About weather observations | Map of weather stations | Latest weather observations for NT | Other Formats
Station Details ID: 013017 Name: GILES METEOROLOGICAL OFFICE Lat: -25.03 Lon: 128.30 Height: 598.0 m
Data from the previous 72 hours. | See also: Recent months at Giles*

* Giles observations are collected in the South Australia time zone, which includes daylight saving in the summer period. Therefore, Rain since 9am value is with respect to South Australia local time.

Date/Time
CST
Temp
°C
App
Temp
°C
Dew
Point
Rel
Hum
%
Delta-T
°C
Wind Press
QNH
hPa
Press
MSL
hPa
Rain
since 9 am
mm
Dir
 
Spd
km/h
Gust
km/h
Spd
kts
Gust
kts
02/09:00pm 15.3 9.0 3.9 46 5.4 SSE 26 35 14 19 1026.7 1025.5 0.0
02/08:30pm 15.9 10.5 4.5 46 5.5 SSE 22 33 12 18 1026.5 1025.3 0.0
02/08:00pm 16.4 10.2 4.4 45 5.8 SSE 26 35 14 19 1025.9 1024.7 0.0
02/07:30pm 16.9 11.6 4.8 44 5.9 SSE 22 32 12 17 1025.6 1024.4 0.0
02/07:00pm 17.8 11.3 4.8 42 6.4 SSE 28 39 15 21 1025.2 1024.0 0.0
02/06:30pm 18.8 13.5 5.2 40 6.8 SSE 22 32 12 17 1024.8 1023.5 0.0
02/05:30pm 20.7 15.5 5.6 37 7.7 SE 22 32 12 17 1023.9 1022.7 0.0
02/05:00pm 21.4 16.5 5.3 35 8.2 SSE 20 35 11 19 1023.8 1022.6 0.0
02/04:30pm 22.0 16.4 5.4 34 8.5 SSE 24 32 13 17 1023.5 1022.3 0.0
02/04:00pm 21.8 16.6 5.4 34 8.4 SSE 22 32 12 17 1023.4 1022.2 0.0
02/03:30pm 22.1 16.5 5.5 34 8.5 SSE 24 35 13 19 1023.4 1022.2 0.0
02/03:00pm 21.5 15.9 5.4 35 8.2 SE 24 37 13 20 1023.4 1022.2 0.0
02/02:30pm 21.9 16.3 5.2 33 8.5 SSE 24 35 13 19 1023.3 1022.0 0.0
02/02:00pm 21.8 16.2 5.6 35 8.3 SSE 24 33 13 18 1023.5 1022.3 0.0
02/01:30pm 21.3 15.8 6.0 37 7.9 SE 24 35 13 19 1023.8 1022.6 0.0
02/01:00pm 21.0 15.6 6.3 38 7.6 SSE 24 33 13 18 1024.0 1022.8 0.0
02/12:30pm 20.4 14.7 6.5 40 7.2 SE 26 37 14 20 1024.2 1023.0 0.0
02/12:00pm 20.1 14.5 7.1 43 6.8 SE 26 35 14 19 1024.3 1023.1 0.0
02/11:30am 19.1 13.7 8.1 49 5.8 SSE 26 35 14 19 1024.6 1023.3 0.0
02/11:00am 18.3 13.4 8.3 52 5.3 SE 24 39 13 21 1024.7 1023.4 0.0
02/10:30am 17.4 12.9 8.7 56 4.6 SE 22 32 12 17 1024.8 1023.5 0.0
02/10:00am 16.3 11.5 8.7 60 4.0 SE 24 33 13 18 1024.5 1023.2 0.0
02/09:30am 15.4 10.6 8.9 65 3.4 SE 24 32 13 17 1023.9 1022.7 0.0
02/09:00am 14.4 10.0 8.8 69 2.9 SE 22 32 12 17 1023.6 1022.4 0.0
02/08:30am 12.7 9.1 8.2 74 2.3 SE 17 24 9 13 1023.2 1021.9 0.0
02/08:00am 12.7 9.0 8.0 73 2.4 ESE 17 22 9 12 1022.7 1021.4 0.0
02/07:30am 12.2 8.5 8.0 75 2.1 ESE 17 20 9 11 1022.0 1020.8 0.0
02/07:00am 12.5 8.8 8.0 74 2.3 ESE 17 20 9 11 1021.6 1020.3 0.0
02/06:30am 13.1 9.0 8.0 71 2.6 ESE 19 22 10 12 1021.3 1020.0 0.0
02/05:30am 13.2 9.4 7.7 69 2.8 ESE 17 20 9 11 1020.9 1019.6 0.0
02/05:00am 13.5 9.8 7.8 68 2.9 ESE 17 20 9 11 1021.1 1019.8 0.0
02/04:30am 14.0 10.2 7.7 66 3.2 ESE 17 20 9 11 1021.0 1019.7 0.0
02/04:00am 14.1 10.4 7.8 66 3.2 ESE 17 19 9 10 1020.9 1019.6 0.0
02/03:30am 14.8 10.6 7.5 61 3.7 ESE 19 20 10 11 1020.5 1019.3 0.0
02/03:00am 15.3 11.5 7.7 60 3.9 ESE 17 20 9 11 1020.6 1019.4 0.0
02/02:30am 15.1 11.4 7.9 62 3.7 ESE 17 19 9 10 1020.7 1019.5 0.0
02/02:00am 15.1 11.3 7.7 61 3.8 ESE 17 19 9 10 1020.6 1019.4 0.0
02/01:30am 15.4 11.6 7.6 59 4.0 ESE 17 19 9 10 1020.6 1019.4 0.0
02/01:00am 15.4 12.0 7.6 59 4.0 ESE 15 19 8 10 1020.5 1019.3 0.0
02/12:30am 16.0 13.0 7.7 58 4.3 ESE 13 17 7 9 1020.5 1019.3 0.0
02/12:00am 16.4 13.7 7.2 54 4.7 SE 11 15 6 8 1020.4 1019.1 0.0
 
Date/Time
CST
Temp
°C
App
Temp
°C
Dew
Point
Rel
Hum
%
Delta-T
°C
Wind Press
QNH
hPa
Press
MSL
hPa
Rain
since 9 am
mm
Dir
 
Spd
km/h
Gust
km/h
Spd
kts
Gust
kts
01/11:30pm 16.6 13.8 6.8 52 5.0 SSE 11 15 6 8 1020.4 1019.1 0.0
01/11:00pm 16.9 13.3 5.1 45 5.8 S 13 15 7 8 1020.2 1018.9 0.0
01/10:30pm 17.7 15.1 4.4 41 6.5 S 7 11 4 6 1020.0 1018.7 0.0
01/10:00pm 18.3 15.5 3.0 36 7.3 S 7 11 4 6 1019.8 1018.5 0.0
01/09:30pm 18.5 14.1 0.1 29 8.3 SW 13 15 7 8 1019.4 1018.1 0.0
01/09:00pm 18.7 14.0 -1.8 25 8.9 SW 13 17 7 9 1019.1 1017.8 0.0
01/08:30pm 19.6 16.7 -1.1 24 9.2 WNW 4 7 2 4 1018.3 1017.0 0.0
01/08:00pm 21.7 18.3 -2.3 20 10.6 WNW 6 9 3 5 1017.8 1016.5 0.0
01/07:30pm 21.9 17.6 -1.8 20 10.6 WNW 11 13 6 7 1017.5 1016.1 0.0
01/07:00pm 23.0 18.7 -1.8 19 11.2 W 11 13 6 7 1017.0 1015.7 0.0
01/06:30pm 25.0 19.7 -3.7 14 12.7 W 15 20 8 11 1016.7 1015.4 0.0
01/06:00pm 26.4 20.2 -5.3 12 13.8 WNW 19 26 10 14 1016.6 1015.3 0.0
01/05:30pm 27.1 19.8 -6.5 10 14.4 NW 24 39 13 21 1016.4 1015.1 0.0
01/05:00pm 27.9 20.6 -6.3 10 14.8 WNW 24 35 13 19 1016.4 1015.1 0.0
01/04:30pm 27.8 21.0 -9.2 8 15.2 WNW 20 28 11 15 1016.3 1015.0 0.0
01/04:00pm 27.8 20.2 -9.9 8 15.3 WNW 24 33 13 18 1016.2 1014.9 0.0
01/03:30pm 27.9 20.9 -6.9 10 14.9 WNW 22 35 12 19 1016.3 1015.0 0.0
01/03:17pm 27.7 19.5 -7.6 9 14.9 NW 28 48 15 26 1016.3 1015.0 0.0
01/03:00pm 27.7 19.8 -8.9 8 15.1 WNW 26 41 14 22 1016.3 1015.0 0.0
01/02:30pm 27.2 18.9 -8.7 9 14.8 WNW 28 39 15 21 1016.5 1015.2 0.0
01/02:00pm 27.3 19.0 -9.1 8 14.9 NW 28 39 15 21 1017.0 1015.7 0.0
01/01:30pm 27.1 18.9 -7.8 9 14.6 NW 28 46 15 25 1017.5 1016.1 0.0
01/01:28pm 27.3 19.0 -9.1 8 14.9 NW 28 46 15 25 1017.5 1016.1 0.0
01/01:00pm 26.9 20.1 -11.5 7 15.0 NNW 19 39 10 21 1017.9 1016.6 0.0
01/12:30pm 25.8 18.1 -17.3 5 15.0 NNW 22 32 12 17 1018.4 1017.1 0.0
01/12:00pm 25.1 16.6 -19.5 4 14.8 N 26 33 14 18 1018.7 1017.4 0.0
01/11:30am 23.9 15.7 -23.0 3 14.4 N 24 33 13 18 1019.2 1017.9 0.0
01/11:00am 23.1 14.5 -21.4 4 13.9 NNW 26 35 14 19 1019.3 1018.0 0.0
01/10:30am 22.3 13.7 -23.1 3 13.6 N 26 32 14 17 1019.3 1018.0 0.0
01/10:00am 21.7 13.8 -22.9 4 13.3 N 22 28 12 15 1018.9 1017.6 0.0
01/09:30am 20.1 12.7 -21.0 5 12.4 N 20 26 11 14 1018.6 1017.3 0.0
01/09:00am 18.7 10.8 -23.6 4 11.9 N 22 26 12 14 1018.4 1017.7 0.0
01/08:30am 16.8 10.4 -17.9 8 10.6 N 15 20 8 11 1018.2 1017.4 0.0
01/08:00am 14.7 8.3 -19.5 8 9.8 N 15 20 8 11 1017.8 1017.0 0.0
01/07:30am 13.1 6.8 -17.3 10 8.9 N 15 17 8 9 1017.6 1016.8 0.0
01/07:00am 14.2 7.4 -18.6 9 9.5 NNW 17 20 9 11 1017.6 1016.8 0.0
01/06:30am 14.7 7.5 -19.5 8 9.8 NW 19 20 10 11 1017.4 1016.6 0.0
01/06:00am 14.6 8.6 -18.8 8 9.7 NNW 13 17 7 9 1017.4 1016.6 0.0
01/05:30am 14.0 7.3 -17.4 10 9.3 N 17 20 9 11 1017.0 1016.3 0.0
01/05:00am 15.7 8.9 -20.2 7 10.3 NNW 17 20 9 11 1017.3 1016.5 0.0
01/04:30am 16.6 9.7 -21.4 6 10.8 NNW 17 22 9 12 1017.4 1016.6 0.0
01/04:00am 16.0 8.6 -19.7 7 10.4 N 20 24 11 13 1017.4 1016.6 0.0
01/03:30am 15.5 8.7 -18.9 8 10.1 N 17 17 9 9 1017.7 1016.9 0.0
01/03:00am 15.6 8.5 -18.4 8 10.1 N 19 20 10 11 1017.9 1017.1 0.0
01/02:30am 15.6 8.5 -18.4 8 10.1 N 19 20 10 11 1018.2 1017.4 0.0
01/02:00am 16.0 8.9 -18.6 8 10.3 N 19 20 10 11 1018.3 1017.6 0.0
01/01:30am 14.5 7.8 -16.3 10 9.4 NNW 17 19 9 10 1018.4 1017.7 0.0
01/01:00am 15.8 9.4 -18.5 8 10.2 NNW 15 17 8 9 1018.5 1017.8 0.0
01/12:30am 15.7 10.3 -13.3 12 9.6 NNW 11 13 6 7 1018.4 1017.7 0.0
01/12:00am 17.0 11.9 -15.0 10 10.4 NNW 9 11 5 6 1018.6 1017.9 0.0
 
Date/Time
CST
Temp
°C
App
Temp
°C
Dew
Point
Rel
Hum
%
Delta-T
°C
Wind Press
QNH
hPa
Press
MSL
hPa
Rain
since 9 am
mm
Dir
 
Spd
km/h
Gust
km/h
Spd
kts
Gust
kts
31/11:30pm 17.8 12.3 -15.2 9 10.8 N 11 11 6 6 1018.7 1018.0 0.0
31/11:00pm 18.4 12.9 -16.4 8 11.2 N 11 13 6 7 1018.8 1018.1 0.0
31/10:30pm 18.3 12.4 -15.8 8 11.1 N 13 15 7 8 1018.8 1018.1 0.0
31/10:00pm 18.2 12.8 -13.6 10 10.8 N 11 17 6 9 1018.7 1018.0 0.0
31/09:30pm 19.3 13.5 -14.2 9 11.4 N 13 15 7 8 1018.8 1018.1 0.0
31/09:00pm 19.7 14.8 -11.8 11 11.3 NNW 9 13 5 7 1018.6 1017.9 0.0
31/08:30pm 20.2 15.3 -12.2 10 11.6 N 9 13 5 7 1018.2 1017.4 0.0
31/08:00pm 20.7 15.4 -12.6 9 11.9 N 11 15 6 8 1018.0 1017.2 0.0
31/07:30pm 21.7 16.3 -14.3 8 12.6 N 11 15 6 8 1017.8 1017.0 0.0
31/07:00pm 23.8 17.1 -17.7 5 14.0 N 17 19 9 10 1017.7 1016.9 0.0
31/06:30pm 25.1 18.4 -18.1 5 14.7 N 17 20 9 11 1017.4 1016.6 0.0
31/06:00pm 26.8 20.0 -21.0 3 15.8 N 17 24 9 13 1017.1 1016.4 0.0
31/05:30pm 27.6 20.3 -17.7 4 16.0 N 20 32 11 17 1017.1 1016.4 0.0
31/05:00pm 27.8 20.3 -24.0 2 16.5 N 20 32 11 17 1017.0 1016.3 0.0
31/04:30pm 28.0 20.5 -22.0 3 16.5 N 20 30 11 16 1017.3 1016.5 0.0
31/04:00pm 28.0 19.7 -26.2 2 16.7 N 24 35 13 19 1017.6 1016.8 0.0
31/03:30pm 28.0 20.4 -26.3 2 16.7 N 20 33 11 18 1017.9 1017.1 0.0
31/03:00pm 27.7 19.4 -25.4 2 16.5 NNE 24 33 13 18 1018.2 1017.4 0.0
31/02:30pm 27.6 19.3 -24.4 2 16.4 N 24 33 13 18 1018.5 1017.8 0.0
31/02:00pm 27.4 19.8 -27.0 2 16.4 NNE 20 32 11 17 1019.1 1018.3 0.0
31/01:30pm 27.1 19.3 -20.3 3 15.9 NNE 22 33 12 18 1019.7 1018.9 0.0
31/01:00pm 25.9 17.9 -15.7 5 14.9 NE 24 37 13 20 1020.3 1019.6 0.0
31/12:30pm 25.5 17.6 -14.8 6 14.6 NNE 24 33 13 18 1020.6 1019.9 0.0
31/12:00pm 24.9 16.7 -12.3 7 14.0 NNE 26 35 14 19 1021.1 1020.3 0.0
31/11:30am 25.1 18.0 -14.0 6 14.3 NNE 20 28 11 15 1021.8 1021.1 0.0
31/11:00am 23.8 16.6 -14.8 6 13.7 NNE 20 28 11 15 1022.2 1021.5 0.0
31/10:30am 23.1 16.7 -11.8 9 13.0 NNE 17 20 9 11 1022.5 1021.8 0.0
31/10:00am 23.1 17.4 -12.7 8 13.1 N 13 15 7 8 1022.4 1021.7 0.0
31/09:30am 20.2 17.5 -5.5 17 10.5 CALM 0 0 0 0 1022.3 1021.6 0.0
31/09:00am 18.6 16.3 -2.4 24 9.0 CALM 0 0 0 0 1022.3 1021.6 0.0
31/08:30am 15.7 12.6 -2.6 28 7.6 SE 4 7 2 4 1022.1 1021.4 0.0
31/08:00am 12.6 9.9 -6.3 26 7.0 CALM 0 0 0 0 1021.9 1021.2 0.0
31/07:30am 11.6 8.9 -5.6 29 6.4 CALM 0 4 0 2 1021.6 1020.9 0.0
31/07:00am 13.1 8.9 -7.2 23 7.4 NNW 7 9 4 5 1021.5 1020.8 0.0
31/06:30am 12.1 9.5 -5.1 29 6.5 CALM 0 0 0 0 1021.2 1020.5 0.0
31/06:00am 12.8 8.8 -5.9 26 7.0 NE 7 9 4 5 1021.1 1020.3 0.0
31/05:30am 13.8 9.4 -6.1 24 7.5 E 9 9 5 5 1021.1 1020.3 0.0
31/05:00am 15.3 11.2 -7.1 20 8.4 E 7 9 4 5 1021.3 1020.6 0.0
31/04:30am 14.6 10.4 -7.7 20 8.2 ESE 7 9 4 5 1021.5 1020.8 0.0
31/04:00am 14.0 11.1 -7.6 21 7.9 CALM 0 6 0 3 1021.6 1020.9 0.0
31/03:30am 16.8 13.8 -5.0 22 8.7 E 2 6 1 3 1021.8 1021.1 0.0
31/03:00am 17.3 13.2 -9.0 16 9.7 ENE 6 7 3 4 1021.9 1021.2 0.0
31/02:30am 17.4 14.4 -8.7 16 9.7 CALM 0 0 0 0 1022.2 1021.5 0.0
31/02:00am 16.1 13.3 -7.2 19 8.8 CALM 0 0 0 0 1022.7 1022.0 0.0
31/01:30am 16.4 13.6 -7.0 19 8.9 CALM 0 0 0 0 1023.0 1022.3 0.0
31/01:00am 17.0 13.2 -5.1 21 8.8 NNW 6 7 3 4 1023.1 1022.4 0.0
31/12:30am 17.3 13.5 -5.3 21 9.0 N 6 7 3 4 1023.2 1022.5 0.0
31/12:00am 17.2 13.3 -4.2 23 8.7 NNW 7 11 4 6 1023.5 1022.8 0.0
 
Date/Time
CST
Temp
°C
App
Temp
°C
Dew
Point
Rel
Hum
%
Delta-T
°C
Wind Press
QNH
hPa
Press
MSL
hPa
Rain
since 9 am
mm
Dir
 
Spd
km/h
Gust
km/h
Spd
kts
Gust
kts
30/11:30pm 17.5 13.8 -2.7 25 8.5 NNW 7 9 4 5 1023.6 1022.9 0.0
30/11:00pm 18.2 13.8 -5.6 19 9.5 NNW 9 11 5 6 1023.7 1023.0 0.0
30/10:30pm 18.0 14.3 -2.5 24 8.7 NNW 7 9 4 5 1023.8 1023.1 0.0
30/10:00pm 16.4 13.3 -2.5 27 7.9 WNW 4 7 2 4 1023.7 1023.0 0.0

Other Formats:

Comma delimited format used in spreadsheet applications
http://www.bom.gov.au/fwo/IDD60801/IDD60801.94461.axf

JavaScript Object Notation format (JSON) in row-major order
http://www.bom.gov.au/fwo/IDD60801/IDD60801.94461.json